createdAt,value
2018-12-13T00:00:27.917Z,1009.98
2018-12-13T00:01:08.647Z,1009.96
2018-12-13T00:01:49.436Z,1009.96
2018-12-13T00:02:30.204Z,1009.96
2018-12-13T00:03:10.921Z,1009.95
2018-12-13T00:03:51.685Z,1009.93
2018-12-13T00:04:32.405Z,1009.91
2018-12-13T00:05:13.237Z,1009.94
2018-12-13T00:05:54.055Z,1009.96
2018-12-13T00:06:34.751Z,1009.94
2018-12-13T00:07:15.499Z,1009.94
2018-12-13T00:07:56.319Z,1009.91
2018-12-13T00:08:37.132Z,1009.89
2018-12-13T00:09:17.898Z,1009.89
2018-12-13T00:09:58.594Z,1009.9
2018-12-13T00:10:39.385Z,1009.9
2018-12-13T00:11:20.157Z,1009.9
2018-12-13T00:12:00.861Z,1009.86
2018-12-13T00:12:41.605Z,1009.92
2018-12-13T00:13:22.376Z,1009.91
2018-12-13T00:14:03.166Z,1009.92
2018-12-13T00:14:44.000Z,1009.92
2018-12-13T00:15:24.788Z,1009.92
2018-12-13T00:16:05.495Z,1009.92
2018-12-13T00:16:46.216Z,1009.91
2018-12-13T00:17:26.942Z,1009.91
2018-12-13T00:18:07.742Z,1009.88
2018-12-13T00:18:48.521Z,1009.94
2018-12-13T00:19:29.226Z,1009.93
2018-12-13T00:20:10.107Z,1009.93
2018-12-13T00:20:50.938Z,1009.94
2018-12-13T00:21:31.730Z,1009.9
2018-12-13T00:22:12.564Z,1009.88
2018-12-13T00:22:53.325Z,1009.84
2018-12-13T00:23:34.068Z,1009.8
2018-12-13T00:24:14.802Z,1009.79
2018-12-13T00:24:55.579Z,1009.77
2018-12-13T00:25:36.358Z,1009.74
2018-12-13T00:26:17.228Z,1009.74
2018-12-13T00:26:57.933Z,1009.75
2018-12-13T00:27:38.696Z,1009.74
2018-12-13T00:28:19.568Z,1009.74
2018-12-13T00:29:00.372Z,1009.75
2018-12-13T00:29:41.098Z,1009.75
2018-12-13T00:30:21.830Z,1009.76
2018-12-13T00:31:02.600Z,1009.75
2018-12-13T00:31:43.401Z,1009.76
2018-12-13T00:32:24.151Z,1009.77
2018-12-13T00:33:04.983Z,1009.73
2018-12-13T00:33:45.677Z,1009.74
2018-12-13T00:34:26.436Z,1009.71
2018-12-13T00:35:07.152Z,1009.72
2018-12-13T00:35:48.014Z,1009.74
2018-12-13T00:36:28.780Z,1009.72
2018-12-13T00:37:09.475Z,1009.73
2018-12-13T00:37:50.250Z,1009.76
2018-12-13T00:38:31.049Z,1009.74
2018-12-13T00:39:11.879Z,1009.71
2018-12-13T00:39:52.588Z,1009.7
2018-12-13T00:40:33.313Z,1009.71
2018-12-13T00:41:14.164Z,1009.67
2018-12-13T00:41:54.825Z,1009.7
2018-12-13T00:42:35.576Z,1009.67
2018-12-13T00:43:16.264Z,1009.67
2018-12-13T00:43:57.021Z,1009.68
2018-12-13T00:44:37.902Z,1009.68
2018-12-13T00:45:18.620Z,1009.63
2018-12-13T00:45:59.366Z,1009.65
2018-12-13T00:46:40.139Z,1009.61
2018-12-13T00:47:20.912Z,1009.59
2018-12-13T00:48:01.739Z,1009.56
2018-12-13T00:48:42.434Z,1009.58
2018-12-13T00:49:23.173Z,1009.59
2018-12-13T00:50:03.892Z,1009.6
2018-12-13T00:50:44.650Z,1009.62
2018-12-13T00:51:25.488Z,1009.64
2018-12-13T00:52:06.251Z,1009.65
2018-12-13T00:52:46.936Z,1009.68
2018-12-13T00:53:27.654Z,1009.68
2018-12-13T00:54:08.454Z,1009.68
2018-12-13T00:54:49.209Z,1009.65
2018-12-13T00:55:29.915Z,1009.67
2018-12-13T00:56:10.648Z,1009.64
2018-12-13T00:56:51.344Z,1009.66
2018-12-13T00:57:32.139Z,1009.65
2018-12-13T00:58:12.956Z,1009.68
2018-12-13T00:58:53.724Z,1009.64
2018-12-13T00:59:34.539Z,1009.68
2018-12-13T01:00:15.309Z,1009.61
2018-12-13T01:00:56.107Z,1009.62
2018-12-13T01:01:36.833Z,1009.65
2018-12-13T01:02:17.555Z,1009.6
2018-12-13T01:02:58.331Z,1009.57
2018-12-13T01:03:39.056Z,1009.54
2018-12-13T01:04:19.810Z,1009.51
2018-12-13T01:05:00.609Z,1009.51
2018-12-13T01:05:41.382Z,1009.51
2018-12-13T01:06:22.194Z,1009.53
2018-12-13T01:07:02.992Z,1009.52
2018-12-13T01:07:43.724Z,1009.51
2018-12-13T01:08:24.468Z,1009.54
2018-12-13T01:09:05.199Z,1009.56
2018-12-13T01:09:45.960Z,1009.57
2018-12-13T01:10:26.754Z,1009.54
2018-12-13T01:11:07.472Z,1009.53
2018-12-13T01:11:48.222Z,1009.57
2018-12-13T01:12:29.034Z,1009.6
2018-12-13T01:13:09.888Z,1009.59
2018-12-13T01:13:50.592Z,1009.64
2018-12-13T01:14:31.344Z,1009.65
2018-12-13T01:15:12.080Z,1009.63
2018-12-13T01:15:52.885Z,1009.63
2018-12-13T01:16:33.611Z,1009.6
2018-12-13T01:17:14.319Z,1009.56
2018-12-13T01:17:55.014Z,1009.56
2018-12-13T01:18:35.768Z,1009.55
2018-12-13T01:19:16.585Z,1009.55
2018-12-13T01:19:57.330Z,1009.6
2018-12-13T01:20:38.070Z,1009.57
2018-12-13T01:21:20.710Z,1009.6
2018-12-13T01:21:59.644Z,1009.59
2018-12-13T01:22:40.486Z,1009.57
2018-12-13T01:23:21.198Z,1009.57
2018-12-13T01:24:01.956Z,1009.56
2018-12-13T01:24:42.726Z,1009.57
2018-12-13T01:25:23.559Z,1009.55
2018-12-13T01:26:04.372Z,1009.52
2018-12-13T01:26:45.181Z,1009.51
2018-12-13T01:27:25.912Z,1009.47
2018-12-13T01:28:06.659Z,1009.48
2018-12-13T01:28:47.460Z,1009.46
2018-12-13T01:29:28.236Z,1009.42
2018-12-13T01:30:08.969Z,1009.43
2018-12-13T01:30:49.667Z,1009.4
2018-12-13T01:31:30.399Z,1009.41
2018-12-13T01:32:11.229Z,1009.39
2018-12-13T01:32:51.968Z,1009.43
2018-12-13T01:33:32.785Z,1009.43
2018-12-13T01:34:13.474Z,1009.46
2018-12-13T01:34:54.161Z,1009.43
2018-12-13T01:35:34.853Z,1009.41
2018-12-13T01:36:15.634Z,1009.41
2018-12-13T01:36:56.388Z,1009.43
2018-12-13T01:37:37.116Z,1009.38
2018-12-13T01:38:17.876Z,1009.42
2018-12-13T01:38:58.651Z,1009.44
2018-12-13T01:39:39.466Z,1009.44
2018-12-13T01:40:20.216Z,1009.44
2018-12-13T01:41:00.962Z,1009.49
2018-12-13T01:41:41.696Z,1009.46
2018-12-13T01:42:22.457Z,1009.41
2018-12-13T01:43:03.258Z,1009.4
2018-12-13T01:43:43.999Z,1009.39
2018-12-13T01:44:24.812Z,1009.42
2018-12-13T01:45:05.564Z,1009.41
2018-12-13T01:45:46.358Z,1009.36
2018-12-13T01:46:27.165Z,1009.39
2018-12-13T01:47:07.950Z,1009.38
2018-12-13T01:47:48.670Z,1009.36
2018-12-13T01:48:29.403Z,1009.35
2018-12-13T01:49:10.163Z,1009.32
2018-12-13T01:49:51.007Z,1009.29
2018-12-13T01:50:31.743Z,1009.26
2018-12-13T01:51:12.465Z,1009.19
2018-12-13T01:51:53.247Z,1009.21
2018-12-13T01:52:34.016Z,1009.18
2018-12-13T01:53:14.827Z,1009.18
2018-12-13T01:53:55.550Z,1009.16
2018-12-13T01:54:36.283Z,1009.23
2018-12-13T01:55:17.080Z,1009.2
2018-12-13T01:55:57.793Z,1009.19
2018-12-13T01:56:38.479Z,1009.22
2018-12-13T01:57:19.202Z,1009.17
2018-12-13T01:58:01.173Z,1009.16
2018-12-13T01:58:40.760Z,1009.13
2018-12-13T01:59:21.671Z,1009.1
2018-12-13T02:00:02.378Z,1009.07
2018-12-13T02:00:43.049Z,1009.08
2018-12-13T02:01:23.813Z,1009.09
2018-12-13T02:02:04.568Z,1009.06
2018-12-13T02:02:45.369Z,1009.04
2018-12-13T02:03:26.067Z,1009.02
2018-12-13T02:04:06.842Z,1008.99
2018-12-13T02:04:47.627Z,1009
2018-12-13T02:05:28.386Z,1008.98
2018-12-13T02:06:09.184Z,1008.98
2018-12-13T02:06:49.906Z,1009
2018-12-13T02:07:30.617Z,1008.99
2018-12-13T02:08:11.337Z,1009.01
2018-12-13T02:08:52.164Z,1009
2018-12-13T02:09:32.940Z,1008.97
2018-12-13T02:10:13.757Z,1008.96
2018-12-13T02:10:54.494Z,1008.94
2018-12-13T02:11:35.199Z,1008.97
2018-12-13T02:12:15.987Z,1008.93
2018-12-13T02:12:56.742Z,1008.94
2018-12-13T02:13:37.451Z,1008.93
2018-12-13T02:14:18.193Z,1008.91
2018-12-13T02:14:58.877Z,1008.91
2018-12-13T02:15:39.687Z,1008.92
2018-12-13T02:16:20.468Z,1008.91
2018-12-13T02:17:01.310Z,1008.93
2018-12-13T02:17:42.055Z,1008.93
2018-12-13T02:18:22.793Z,1008.93
2018-12-13T02:19:03.556Z,1008.95
2018-12-13T02:19:44.379Z,1008.94
2018-12-13T02:20:25.146Z,1008.94
2018-12-13T02:21:05.890Z,1008.93
2018-12-13T02:21:46.650Z,1008.89
2018-12-13T02:22:27.441Z,1008.9
2018-12-13T02:23:08.269Z,1008.89
2018-12-13T02:23:49.043Z,1008.87
2018-12-13T02:24:29.790Z,1008.85
2018-12-13T02:25:10.666Z,1008.85
2018-12-13T02:25:51.428Z,1008.82
2018-12-13T02:26:32.141Z,1008.82
2018-12-13T02:27:12.845Z,1008.79
2018-12-13T02:27:53.579Z,1008.75
2018-12-13T02:28:34.391Z,1008.73
2018-12-13T02:29:15.173Z,1008.67
2018-12-13T02:29:55.908Z,1008.63
2018-12-13T02:30:36.711Z,1008.67
2018-12-13T02:31:17.517Z,1008.74
2018-12-13T02:31:58.326Z,1008.71
2018-12-13T02:32:39.093Z,1008.71
2018-12-13T02:33:19.808Z,1008.75
2018-12-13T02:34:00.587Z,1008.7
2018-12-13T02:34:41.318Z,1008.68
2018-12-13T02:35:22.139Z,1008.65
2018-12-13T02:36:02.926Z,1008.66
2018-12-13T02:36:43.738Z,1008.66
2018-12-13T02:37:24.431Z,1008.63
2018-12-13T02:38:05.201Z,1008.62
2018-12-13T02:38:45.972Z,1008.62
2018-12-13T02:39:26.715Z,1008.61
2018-12-13T02:40:07.455Z,1008.62
2018-12-13T02:40:48.285Z,1008.65
2018-12-13T02:41:29.075Z,1008.63
2018-12-13T02:42:09.882Z,1008.62
2018-12-13T02:42:50.681Z,1008.65
2018-12-13T02:43:31.420Z,1008.65
2018-12-13T02:44:12.178Z,1008.64
2018-12-13T02:44:52.907Z,1008.6
2018-12-13T02:45:33.650Z,1008.59
2018-12-13T02:46:14.444Z,1008.53
2018-12-13T02:46:55.181Z,1008.5
2018-12-13T02:47:35.924Z,1008.47
2018-12-13T02:48:16.720Z,1008.49
2018-12-13T02:48:57.494Z,1008.42
2018-12-13T02:49:38.313Z,1008.45
2018-12-13T02:50:19.017Z,1008.41
2018-12-13T02:50:59.757Z,1008.41
2018-12-13T02:51:40.481Z,1008.41
2018-12-13T02:52:21.308Z,1008.45
2018-12-13T02:53:02.054Z,1008.46
2018-12-13T02:53:42.835Z,1008.44
2018-12-13T02:54:23.571Z,1008.43
2018-12-13T02:55:04.263Z,1008.42
2018-12-13T02:55:45.056Z,1008.38
2018-12-13T02:56:25.825Z,1008.37
2018-12-13T02:57:06.539Z,1008.35
2018-12-13T02:57:47.250Z,1008.33
2018-12-13T02:58:27.991Z,1008.34
2018-12-13T02:59:08.872Z,1008.29
2018-12-13T02:59:49.592Z,1008.32
2018-12-13T03:00:30.318Z,1008.29
2018-12-13T03:01:11.090Z,1008.3
2018-12-13T03:01:51.829Z,1008.27
2018-12-13T03:02:32.618Z,1008.25
2018-12-13T03:03:13.352Z,1008.23
2018-12-13T03:03:54.098Z,1008.24
2018-12-13T03:04:34.877Z,1008.2
2018-12-13T03:05:15.607Z,1008.17
2018-12-13T03:05:56.325Z,1008.19
2018-12-13T03:06:37.053Z,1008.17
2018-12-13T03:07:17.799Z,1008.18
2018-12-13T03:07:58.640Z,1008.18
2018-12-13T03:08:39.449Z,1008.14
2018-12-13T03:09:20.176Z,1008.12
2018-12-13T03:10:00.894Z,1008.1
2018-12-13T03:10:41.630Z,1008.09
2018-12-13T03:11:22.342Z,1008.08
2018-12-13T03:12:03.209Z,1008.07
2018-12-13T03:12:43.994Z,1008.05
2018-12-13T03:13:24.721Z,1008.05
2018-12-13T03:14:05.425Z,1008.06
2018-12-13T03:14:46.153Z,1008.02
2018-12-13T03:15:26.967Z,1008.01
2018-12-13T03:16:07.722Z,1008.04
2018-12-13T03:16:48.436Z,1007.92
2018-12-13T03:17:29.219Z,1007.91
2018-12-13T03:18:10.010Z,1007.94
2018-12-13T03:18:50.829Z,1007.92
2018-12-13T03:19:31.539Z,1007.92
2018-12-13T03:20:12.213Z,1007.87
2018-12-13T03:20:53.040Z,1007.86
2018-12-13T03:21:33.744Z,1007.82
2018-12-13T03:22:14.530Z,1007.81
2018-12-13T03:22:55.277Z,1007.78
2018-12-13T03:23:35.995Z,1007.75
2018-12-13T03:24:16.798Z,1007.7
2018-12-13T03:24:57.531Z,1007.62
2018-12-13T03:25:38.267Z,1007.6
2018-12-13T03:26:19.089Z,1007.58
2018-12-13T03:26:59.860Z,1007.59
2018-12-13T03:27:40.671Z,1007.53
2018-12-13T03:28:21.427Z,1007.5
2018-12-13T03:29:02.120Z,1007.53
2018-12-13T03:29:42.819Z,1007.52
2018-12-13T03:30:23.559Z,1007.45
2018-12-13T03:31:04.376Z,1007.45
2018-12-13T03:31:45.186Z,1007.45
2018-12-13T03:32:25.979Z,1007.35
2018-12-13T03:33:06.729Z,1007.33
2018-12-13T03:33:47.508Z,1007.28
2018-12-13T03:34:28.321Z,1007.28
2018-12-13T03:35:09.041Z,1007.27
2018-12-13T03:35:49.778Z,1007.27
2018-12-13T03:36:30.498Z,1007.23
2018-12-13T03:37:11.331Z,1007.26
2018-12-13T03:37:52.138Z,1007.26
2018-12-13T03:38:32.960Z,1007.26
2018-12-13T03:39:13.765Z,1007.33
2018-12-13T03:39:54.493Z,1007.36
2018-12-13T03:40:35.189Z,1007.39
2018-12-13T03:41:16.021Z,1007.42
2018-12-13T03:41:56.809Z,1007.44
2018-12-13T03:42:37.549Z,1007.48
2018-12-13T03:43:18.296Z,1007.45
2018-12-13T03:43:59.093Z,1007.46
2018-12-13T03:44:39.899Z,1007.47
2018-12-13T03:45:20.677Z,1007.51
2018-12-13T03:46:01.383Z,1007.49
2018-12-13T03:46:42.090Z,1007.47
2018-12-13T03:47:22.878Z,1007.5
2018-12-13T03:48:03.685Z,1007.52
2018-12-13T03:48:44.455Z,1007.54
2018-12-13T03:49:25.269Z,1007.51
2018-12-13T03:50:06.026Z,1007.5
2018-12-13T03:50:46.775Z,1007.51
2018-12-13T03:51:27.573Z,1007.52
2018-12-13T03:52:08.335Z,1007.56
2018-12-13T03:52:49.079Z,1007.64
2018-12-13T03:53:29.780Z,1007.64
2018-12-13T03:54:10.548Z,1007.65
2018-12-13T03:54:51.356Z,1007.63
2018-12-13T03:55:32.071Z,1007.64
2018-12-13T03:56:12.873Z,1007.64
2018-12-13T03:56:53.657Z,1007.64
2018-12-13T03:57:34.428Z,1007.66
2018-12-13T03:58:15.216Z,1007.67
2018-12-13T03:58:55.899Z,1007.69
2018-12-13T03:59:36.643Z,1007.63
2018-12-13T04:00:17.487Z,1007.65
2018-12-13T04:00:58.201Z,1007.61
2018-12-13T04:01:38.896Z,1007.64
2018-12-13T04:02:19.617Z,1007.63
2018-12-13T04:03:00.433Z,1007.61
2018-12-13T04:03:41.202Z,1007.62
2018-12-13T04:04:22.044Z,1007.6
2018-12-13T04:05:02.818Z,1007.65
2018-12-13T04:05:43.523Z,1007.65
2018-12-13T04:06:24.267Z,1007.63
2018-12-13T04:07:05.044Z,1007.65
2018-12-13T04:07:45.846Z,1007.62
2018-12-13T04:08:26.562Z,1007.62
2018-12-13T04:09:07.274Z,1007.66
2018-12-13T04:09:48.081Z,1007.68
2018-12-13T04:10:28.891Z,1007.68
2018-12-13T04:11:09.714Z,1007.65
2018-12-13T04:11:50.461Z,1007.64
2018-12-13T04:12:31.153Z,1007.52
2018-12-13T04:13:11.901Z,1007.55
2018-12-13T04:13:52.686Z,1007.5
2018-12-13T04:14:33.457Z,1007.49
2018-12-13T04:15:14.248Z,1007.46
2018-12-13T04:15:55.042Z,1007.46
2018-12-13T04:16:35.747Z,1007.43
2018-12-13T04:17:16.596Z,1007.44
2018-12-13T04:17:57.366Z,1007.41
2018-12-13T04:18:38.094Z,1007.46
2018-12-13T04:19:18.776Z,1007.46
2018-12-13T04:19:59.536Z,1007.47
2018-12-13T04:20:40.394Z,1007.44
2018-12-13T04:21:21.161Z,1007.46
2018-12-13T04:22:01.973Z,1007.45
2018-12-13T04:22:42.690Z,1007.4
2018-12-13T04:23:23.521Z,1007.38
2018-12-13T04:24:04.246Z,1007.31
2018-12-13T04:24:45.035Z,1007.35
2018-12-13T04:25:25.775Z,1007.38
2018-12-13T04:26:06.474Z,1007.4
2018-12-13T04:26:47.190Z,1007.4
2018-12-13T04:27:27.978Z,1007.43
2018-12-13T04:28:08.856Z,1007.46
2018-12-13T04:28:49.632Z,1007.44
2018-12-13T04:29:30.308Z,1007.44
2018-12-13T04:30:11.144Z,1007.48
2018-12-13T04:30:51.967Z,1007.49
2018-12-13T04:31:32.674Z,1007.44
2018-12-13T04:32:13.460Z,1007.48
2018-12-13T04:32:54.210Z,1007.45
2018-12-13T04:33:34.985Z,1007.42
2018-12-13T04:34:15.718Z,1007.43
2018-12-13T04:34:56.409Z,1007.41
2018-12-13T04:35:37.179Z,1007.4
2018-12-13T04:36:17.977Z,1007.39
2018-12-13T04:36:58.800Z,1007.41
2018-12-13T04:37:39.556Z,1007.39
2018-12-13T04:38:20.349Z,1007.37
2018-12-13T04:39:01.056Z,1007.37
2018-12-13T04:39:41.769Z,1007.29
2018-12-13T04:40:22.547Z,1007.29
2018-12-13T04:41:03.375Z,1007.33
2018-12-13T04:41:44.141Z,1007.32
2018-12-13T04:42:24.816Z,1007.35
2018-12-13T04:43:05.520Z,1007.34
2018-12-13T04:43:46.336Z,1007.33
2018-12-13T04:44:27.120Z,1007.33
2018-12-13T04:45:07.841Z,1007.28
2018-12-13T04:45:48.548Z,1007.31
2018-12-13T04:46:29.338Z,1007.31
2018-12-13T04:47:10.344Z,1007.28
2018-12-13T04:47:51.197Z,1007.26
2018-12-13T04:48:32.008Z,1007.27
2018-12-13T04:49:12.745Z,1007.27
2018-12-13T04:49:54.450Z,1007.24
2018-12-13T04:50:34.676Z,1007.24
2018-12-13T04:51:15.481Z,1007.26
2018-12-13T04:51:56.549Z,1007.24
2018-12-13T04:52:37.379Z,1007.27
2018-12-13T04:53:18.284Z,1007.26
2018-12-13T04:53:59.181Z,1007.28
2018-12-13T04:54:39.933Z,1007.29
2018-12-13T04:55:20.835Z,1007.3
2018-12-13T04:56:01.655Z,1007.3
2018-12-13T04:56:42.493Z,1007.29
2018-12-13T04:57:23.250Z,1007.33
2018-12-13T04:58:04.103Z,1007.28
2018-12-13T04:58:44.877Z,1007.3
2018-12-13T04:59:25.727Z,1007.31
2018-12-13T05:00:06.558Z,1007.31
2018-12-13T05:00:47.265Z,1007.27
2018-12-13T05:01:28.047Z,1007.29
2018-12-13T05:02:08.817Z,1007.27
2018-12-13T05:02:49.658Z,1007.29
2018-12-13T05:03:30.431Z,1007.26
2018-12-13T05:04:11.102Z,1007.3
2018-12-13T05:04:51.879Z,1007.29
2018-12-13T05:05:32.677Z,1007.27
2018-12-13T05:06:13.360Z,1007.27
2018-12-13T05:06:54.096Z,1007.24
2018-12-13T05:07:34.809Z,1007.23
2018-12-13T05:08:15.599Z,1007.19
2018-12-13T05:08:56.376Z,1007.25
2018-12-13T05:09:37.072Z,1007.23
2018-12-13T05:10:17.854Z,1007.23
2018-12-13T05:10:58.641Z,1007.2
2018-12-13T05:11:39.443Z,1007.21
2018-12-13T05:12:20.222Z,1007.14
2018-12-13T05:13:00.913Z,1007.12
2018-12-13T05:13:41.627Z,1007.1
2018-12-13T05:14:22.365Z,1007.07
2018-12-13T05:15:03.137Z,1007.02
2018-12-13T05:15:43.956Z,1007.05
2018-12-13T05:16:24.700Z,1007.11
2018-12-13T05:17:05.466Z,1007.11
2018-12-13T05:17:46.209Z,1007.08
2018-12-13T05:18:26.988Z,1007.08
2018-12-13T05:19:07.708Z,1007.08
2018-12-13T05:19:48.478Z,1007.05
2018-12-13T05:20:29.201Z,1007.04
2018-12-13T05:21:10.006Z,1007.04
2018-12-13T05:21:50.803Z,1007.06
2018-12-13T05:22:31.595Z,1007.03
2018-12-13T05:23:12.343Z,1007.04
2018-12-13T05:23:53.041Z,1007.04
2018-12-13T05:24:33.746Z,1007.03
2018-12-13T05:25:14.440Z,1007.01
2018-12-13T05:25:55.283Z,1007.01
2018-12-13T05:26:36.027Z,1007.01
2018-12-13T05:27:16.745Z,1007.01
2018-12-13T05:27:57.528Z,1006.99
2018-12-13T05:28:38.358Z,1006.99
2018-12-13T05:29:19.151Z,1006.98
2018-12-13T05:29:59.849Z,1007
2018-12-13T05:30:40.581Z,1006.95
2018-12-13T05:31:21.323Z,1007
2018-12-13T05:32:02.155Z,1006.97
2018-12-13T05:32:42.888Z,1006.94
2018-12-13T05:33:23.685Z,1006.92
2018-12-13T05:34:04.428Z,1006.92
2018-12-13T05:34:45.160Z,1006.89
2018-12-13T05:35:25.931Z,1006.85
2018-12-13T05:36:06.749Z,1006.85
2018-12-13T05:36:47.458Z,1006.88
2018-12-13T05:37:28.161Z,1006.87
2018-12-13T05:38:08.868Z,1006.9
2018-12-13T05:38:49.667Z,1006.87
2018-12-13T05:39:30.423Z,1006.86
2018-12-13T05:40:11.167Z,1006.84
2018-12-13T05:40:51.949Z,1006.79
2018-12-13T05:41:32.721Z,1006.78
2018-12-13T05:42:13.478Z,1006.78
2018-12-13T05:42:54.233Z,1006.84
2018-12-13T05:43:34.998Z,1006.79
2018-12-13T05:44:15.877Z,1006.8
2018-12-13T05:44:56.653Z,1006.78
2018-12-13T05:45:37.441Z,1006.78
2018-12-13T05:46:18.149Z,1006.79
2018-12-13T05:46:58.886Z,1006.76
2018-12-13T05:47:39.688Z,1006.76
2018-12-13T05:48:20.516Z,1006.75
2018-12-13T05:49:01.307Z,1006.69
2018-12-13T05:49:42.019Z,1006.67
2018-12-13T05:50:22.722Z,1006.65
2018-12-13T05:51:03.420Z,1006.64
2018-12-13T05:51:44.225Z,1006.61
2018-12-13T05:52:25.426Z,1006.58
2018-12-13T05:53:06.131Z,1006.58
2018-12-13T05:53:47.254Z,1006.57
2018-12-13T05:54:28.116Z,1006.56
2018-12-13T05:55:08.961Z,1006.51
2018-12-13T05:55:49.690Z,1006.55
2018-12-13T05:56:30.427Z,1006.57
2018-12-13T05:57:11.184Z,1006.54
2018-12-13T05:57:51.899Z,1006.57
2018-12-13T05:58:32.726Z,1006.61
2018-12-13T05:59:13.502Z,1006.59
2018-12-13T05:59:54.288Z,1006.59
2018-12-13T06:00:35.136Z,1006.58
2018-12-13T06:01:15.899Z,1006.57
2018-12-13T06:01:56.739Z,1006.61
2018-12-13T06:02:37.473Z,1006.59
2018-12-13T06:03:18.207Z,1006.58
2018-12-13T06:03:58.920Z,1006.55
2018-12-13T06:04:39.655Z,1006.6
2018-12-13T06:05:20.457Z,1006.57
2018-12-13T06:06:01.258Z,1006.57
2018-12-13T06:06:42.035Z,1006.55
2018-12-13T06:07:22.781Z,1006.58
2018-12-13T06:08:03.538Z,1006.58
2018-12-13T06:08:44.243Z,1006.6
2018-12-13T06:09:25.008Z,1006.6
2018-12-13T06:10:05.798Z,1006.56
2018-12-13T06:10:46.515Z,1006.58
2018-12-13T06:11:27.299Z,1006.55
2018-12-13T06:12:08.119Z,1006.54
2018-12-13T06:12:48.966Z,1006.57
2018-12-13T06:13:29.702Z,1006.58
2018-12-13T06:14:10.440Z,1006.58
2018-12-13T06:14:51.241Z,1006.59
2018-12-13T06:15:31.973Z,1006.6
2018-12-13T06:16:12.719Z,1006.61
2018-12-13T06:16:53.436Z,1006.62
2018-12-13T06:17:34.166Z,1006.63
2018-12-13T06:18:14.978Z,1006.64
2018-12-13T06:18:55.699Z,1006.63
2018-12-13T06:19:36.459Z,1006.66
2018-12-13T06:20:17.255Z,1006.64
2018-12-13T06:20:58.052Z,1006.66
2018-12-13T06:21:38.876Z,1006.69
2018-12-13T06:22:19.666Z,1006.7
2018-12-13T06:23:00.574Z,1006.71
2018-12-13T06:23:41.311Z,1006.72
2018-12-13T06:24:22.085Z,1006.68
2018-12-13T06:25:02.912Z,1006.68
2018-12-13T06:25:43.743Z,1006.68
2018-12-13T06:26:24.488Z,1006.67
2018-12-13T06:27:05.265Z,1006.69
2018-12-13T06:27:46.031Z,1006.66
2018-12-13T06:28:26.813Z,1006.68
2018-12-13T06:29:07.524Z,1006.69
2018-12-13T06:29:48.901Z,1006.67
2018-12-13T06:30:28.987Z,1006.68
2018-12-13T06:31:09.809Z,1006.71
2018-12-13T06:31:50.592Z,1006.63
2018-12-13T06:32:31.392Z,1006.66
2018-12-13T06:33:12.097Z,1006.67
2018-12-13T06:33:52.863Z,1006.68
2018-12-13T06:34:33.560Z,1006.64
2018-12-13T06:35:14.296Z,1006.66
2018-12-13T06:35:55.093Z,1006.65
2018-12-13T06:36:35.807Z,1006.66
2018-12-13T06:37:16.553Z,1006.63
2018-12-13T06:38:01.150Z,1006.68
2018-12-13T06:38:38.144Z,1006.64
2018-12-13T06:39:19.012Z,1006.63
2018-12-13T06:39:59.734Z,1006.67
2018-12-13T06:40:40.477Z,1006.64
2018-12-13T06:41:21.210Z,1006.66
2018-12-13T06:42:02.003Z,1006.64
2018-12-13T06:42:42.772Z,1006.63
2018-12-13T06:43:23.573Z,1006.57
2018-12-13T06:44:04.310Z,1006.62
2018-12-13T06:44:45.048Z,1006.63
2018-12-13T06:45:25.876Z,1006.57
2018-12-13T06:46:06.592Z,1006.59
2018-12-13T06:46:47.308Z,1006.57
2018-12-13T06:47:28.085Z,1006.57
2018-12-13T06:48:08.809Z,1006.56
2018-12-13T06:48:49.624Z,1006.52
2018-12-13T06:49:30.440Z,1006.54
2018-12-13T06:50:11.203Z,1006.54
2018-12-13T06:50:52.020Z,1006.5
2018-12-13T06:51:32.779Z,1006.51
2018-12-13T06:52:13.600Z,1006.47
2018-12-13T06:52:54.320Z,1006.42
2018-12-13T06:53:35.054Z,1006.46
2018-12-13T06:54:15.909Z,1006.44
2018-12-13T06:54:56.601Z,1006.45
2018-12-13T06:55:37.328Z,1006.45
2018-12-13T06:56:18.059Z,1006.43
2018-12-13T06:56:58.785Z,1006.47
2018-12-13T06:57:39.630Z,1006.4
2018-12-13T06:58:20.406Z,1006.39
2018-12-13T06:59:01.156Z,1006.4
2018-12-13T06:59:41.846Z,1006.4
2018-12-13T07:00:22.568Z,1006.35
2018-12-13T07:01:03.275Z,1006.34
2018-12-13T07:01:44.083Z,1006.36
2018-12-13T07:02:24.783Z,1006.32
2018-12-13T07:03:05.503Z,1006.28
2018-12-13T07:03:46.296Z,1006.3
2018-12-13T07:04:27.078Z,1006.3
2018-12-13T07:05:07.883Z,1006.28
2018-12-13T07:05:48.644Z,1006.25
2018-12-13T07:06:29.387Z,1006.26
2018-12-13T07:07:10.174Z,1006.29
2018-12-13T07:07:50.964Z,1006.27
2018-12-13T07:08:31.676Z,1006.22
2018-12-13T07:09:12.426Z,1006.25
2018-12-13T07:09:53.204Z,1006.24
2018-12-13T07:10:33.974Z,1006.21
2018-12-13T07:11:14.709Z,1006.2
2018-12-13T07:11:55.470Z,1006.21
2018-12-13T07:12:36.225Z,1006.15
2018-12-13T07:13:17.024Z,1006.2
2018-12-13T07:13:57.816Z,1006.16
2018-12-13T07:14:38.524Z,1006.1
2018-12-13T07:15:19.263Z,1006.15
2018-12-13T07:16:00.009Z,1006.07
2018-12-13T07:16:40.752Z,1006.1
2018-12-13T07:17:21.549Z,1006.05
2018-12-13T07:18:02.351Z,1006.01
2018-12-13T07:18:43.140Z,1006.03
2018-12-13T07:19:23.878Z,1006.02
2018-12-13T07:20:04.661Z,1005.97
2018-12-13T07:20:45.437Z,1006.01
2018-12-13T07:21:26.194Z,1006.01
2018-12-13T07:22:06.897Z,1006.01
2018-12-13T07:22:47.667Z,1005.95
2018-12-13T07:23:28.474Z,1005.94
2018-12-13T07:24:09.250Z,1005.96
2018-12-13T07:24:49.957Z,1005.95
2018-12-13T07:25:30.811Z,1005.99
2018-12-13T07:26:11.640Z,1005.96
2018-12-13T07:26:52.428Z,1005.95
2018-12-13T07:27:33.156Z,1005.96
2018-12-13T07:28:13.903Z,1005.94
2018-12-13T07:28:54.664Z,1005.91
2018-12-13T07:29:35.435Z,1005.9
2018-12-13T07:30:16.124Z,1005.92
2018-12-13T07:30:56.841Z,1005.85
2018-12-13T07:31:37.555Z,1005.89
2018-12-13T07:32:18.425Z,1005.86
2018-12-13T07:32:59.249Z,1005.93
2018-12-13T07:33:40.043Z,1005.85
2018-12-13T07:34:20.736Z,1005.96
2018-12-13T07:35:01.690Z,1005.93
2018-12-13T07:35:42.163Z,1005.95
2018-12-13T07:36:22.887Z,1005.96
2018-12-13T07:37:03.675Z,1005.95
2018-12-13T07:37:44.387Z,1005.91
2018-12-13T07:38:25.167Z,1005.92
2018-12-13T07:39:05.968Z,1005.92
2018-12-13T07:39:46.891Z,1005.91
2018-12-13T07:40:27.673Z,1005.93
2018-12-13T07:41:08.407Z,1005.94
2018-12-13T07:41:49.126Z,1005.95
2018-12-13T07:42:29.847Z,1005.94
2018-12-13T07:43:10.642Z,1006.01
2018-12-13T07:43:51.420Z,1006.02
2018-12-13T07:44:32.219Z,1005.98
2018-12-13T07:45:12.904Z,1005.93
2018-12-13T07:45:53.668Z,1005.92
2018-12-13T07:46:34.510Z,1005.95
2018-12-13T07:47:15.255Z,1005.94
2018-12-13T07:47:55.970Z,1005.9
2018-12-13T07:48:36.666Z,1005.92
2018-12-13T07:49:17.423Z,1005.93
2018-12-13T07:49:58.197Z,1006.01
2018-12-13T07:50:38.938Z,1006.05
2018-12-13T07:51:19.755Z,1006
2018-12-13T07:52:00.455Z,1005.99
2018-12-13T07:52:41.137Z,1006
2018-12-13T07:53:21.863Z,1006
2018-12-13T07:54:02.649Z,1006.04
2018-12-13T07:54:43.391Z,1005.96
2018-12-13T07:55:24.208Z,1005.98
2018-12-13T07:56:04.983Z,1006.03
2018-12-13T07:56:45.763Z,1005.96
2018-12-13T07:57:26.590Z,1006.02
2018-12-13T07:58:07.316Z,1006.01
2018-12-13T07:58:48.066Z,1006.06
2018-12-13T07:59:28.868Z,1005.99
2018-12-13T08:00:09.632Z,1006.04
2018-12-13T08:00:50.335Z,1005.98
2018-12-13T08:01:32.506Z,1005.98
2018-12-13T08:02:11.860Z,1006.02
2018-12-13T08:02:52.698Z,1006.03
2018-12-13T08:03:33.368Z,1006.04
2018-12-13T08:04:14.123Z,1006.05
2018-12-13T08:04:54.898Z,1006.03
2018-12-13T08:05:35.657Z,1006
2018-12-13T08:06:16.458Z,1006.04
2018-12-13T08:06:57.178Z,1005.95
2018-12-13T08:07:37.873Z,1005.99
2018-12-13T08:08:20.888Z,1006
2018-12-13T08:08:59.369Z,1005.99
2018-12-13T08:09:40.187Z,1005.94
2018-12-13T08:10:21.030Z,1005.96
2018-12-13T08:11:01.737Z,1005.9
2018-12-13T08:11:42.479Z,1005.9
2018-12-13T08:12:23.247Z,1005.92
2018-12-13T08:13:04.055Z,1005.9
2018-12-13T08:13:44.761Z,1005.85
2018-12-13T08:14:25.451Z,1005.88
2018-12-13T08:15:06.237Z,1005.83